Weather at Lapeer Flyer Airport

Public forecast

Using degrees Fahrenheit for public forecast. Weather courtesy of forecast.io.

Closest aviation weather report (METAR) to Lapeer Flyer Airport

Closest report is Cortland County Chase Field, 10.8 nm (20.0 km) NNW. Retrieved 2021/01/22 08:35 UTC (4 minutes ago):

KN03 220835Z AUTO 25007KT 228V288 5SM -SN BKN013 BKN021 OVC050 00/M01 A2955 RMK AO2

Closest aviation forecast (TAF) to Lapeer Flyer Airport

Closest forecast is Greater Binghamton/Edwin A Link field, 14.6 nm (27.1 km) SSE. Retrieved 2021/01/22 06:34 UTC (2 hours ago):

TAF KBGM 220532Z 2206/2306 25007KT P6SM OVC050 FM221400 27010G17KT P6SM OVC025 FM221700 29013G20KT 1 1/2SM -SN OVC025 FM222100 30012G19KT P6SM OVC050